Time;durP1;ratioP1;P1;durP2;ratioP2;P2;SDS_P1;SDS_P2;PMS_P1;PMS_P2;Temp;Humidity;BMP_temperature;BMP_pressure;BME280_temperature;BME280_humidity;BME280_pressure;Samples;Min_cycle;Max_cycle;Signal;HPM_P1;HPM_P2
2023/11/19 00:00:04;;;;;;;10.68;9.40;;;14.70;67.20;;;;;;339045;29;968;-56
2023/11/19 00:00:15;;;;;;;11.68;9.57;;;14.70;67.20;;;;;;339010;29;1132;-57
2023/11/19 00:00:26;;;;;;;13.07;9.98;;;14.70;67.20;;;;;;338977;29;1124;-56
2023/11/19 00:00:37;;;;;;;13.05;10.38;;;14.70;67.20;;;;;;338980;29;880;-56
2023/11/19 00:00:48;;;;;;;12.77;10.55;;;14.70;67.20;;;;;;338909;29;1012;-56
2023/11/19 00:00:58;;;;;;;12.25;10.27;;;14.70;67.20;;;;;;339019;29;881;-57
2023/11/19 00:01:09;;;;;;;12.20;10.15;;;14.70;67.20;;;;;;339013;29;1008;-56
2023/11/19 00:01:20;;;;;;;11.57;9.95;;;14.70;67.20;;;;;;339077;29;826;-57
2023/11/19 00:01:32;;;;;;;10.73;9.63;;;14.70;67.20;;;;;;338985;29;930;-57
2023/11/19 00:01:43;;;;;;;10.65;9.50;;;14.70;67.20;;;;;;338904;29;1056;-56
2023/11/19 00:01:53;;;;;;;10.48;9.38;;;14.70;67.20;;;;;;339029;29;830;-55
2023/11/19 00:02:04;;;;;;;10.63;9.52;;;14.70;67.20;;;;;;339032;29;1088;-57
2023/11/19 00:02:15;;;;;;;10.23;9.13;;;14.70;67.20;;;;;;338946;29;1839;-57
2023/11/19 00:02:26;;;;;;;11.03;9.37;;;14.70;67.20;;;;;;339005;29;944;-57
2023/11/19 00:02:38;;;;;;;11.35;9.50;;;14.60;67.30;;;;;;338938;29;1900;-56
2023/11/19 00:02:49;;;;;;;12.88;9.90;;;14.70;67.20;;;;;;338997;29;942;-57
2023/11/19 00:03:01;;;;;;;12.77;9.98;;;14.70;67.20;;;;;;338984;29;1092;-56
2023/11/19 00:03:13;;;;;;;12.10;10.18;;;14.60;67.20;;;;;;339016;29;878;-57
2023/11/19 00:03:23;;;;;;;10.73;9.63;;;14.60;67.20;;;;;;338953;29;1211;-58
2023/11/19 00:03:34;;;;;;;10.60;9.50;;;14.70;67.10;;;;;;338936;29;1151;-56
2023/11/19 00:03:45;;;;;;;11.45;9.63;;;14.60;67.10;;;;;;338973;29;989;-58
2023/11/19 00:03:56;;;;;;;12.32;9.65;;;14.70;67.10;;;;;;339058;29;1732;-55
2023/11/19 00:04:08;;;;;;;13.07;9.85;;;14.60;67.10;;;;;;339054;29;862;-58
2023/11/19 00:04:18;;;;;;;11.07;9.88;;;14.60;67.10;;;;;;338897;29;1256;-56
2023/11/19 00:04:30;;;;;;;11.93;10.30;;;14.60;67.10;;;;;;338992;29;977;-59
2023/11/19 00:04:40;;;;;;;11.68;10.35;;;14.70;67.10;;;;;;339008;29;1100;-55
2023/11/19 00:04:51;;;;;;;12.73;10.47;;;14.70;67.00;;;;;;339015;29;846;-58
2023/11/19 00:05:02;;;;;;;11.48;10.23;;;14.70;67.00;;;;;;338942;29;1076;-56
2023/11/19 00:05:13;;;;;;;11.73;10.27;;;14.70;66.90;;;;;;338956;29;901;-57
2023/11/19 00:05:24;;;;;;;11.45;10.25;;;14.60;66.80;;;;;;338966;29;977;-57
2023/11/19 00:05:35;;;;;;;12.18;10.60;;;14.60;66.80;;;;;;339014;29;894;-57
2023/11/19 00:05:45;;;;;;;11.68;10.48;;;14.70;66.90;;;;;;338889;29;1052;-56
2023/11/19 00:05:56;;;;;;;11.65;10.13;;;14.70;66.90;;;;;;338986;29;1029;-56
2023/11/19 00:06:09;;;;;;;11.23;9.57;;;14.60;66.80;;;;;;338994;29;984;-56
2023/11/19 00:06:20;;;;;;;13.07;10.00;;;14.70;66.80;;;;;;339003;29;866;-56
2023/11/19 00:06:31;;;;;;;13.90;10.33;;;14.60;66.80;;;;;;338945;29;953;-56
2023/11/19 00:06:41;;;;;;;13.10;10.15;;;14.70;66.80;;;;;;338989;29;1032;-57
2023/11/19 00:06:52;;;;;;;12.32;9.75;;;14.60;66.90;;;;;;339001;29;1236;-58
2023/11/19 00:07:05;;;;;;;11.80;9.68;;;14.60;66.90;;;;;;338994;29;854;-58
2023/11/19 00:07:16;;;;;;;12.25;9.30;;;14.70;66.80;;;;;;338918;29;1104;-56
2023/11/19 00:07:26;;;;;;;13.45;9.85;;;14.60;66.90;;;;;;338975;29;1036;-56
2023/11/19 00:07:41;;;;;;;13.18;9.90;;;14.60;66.90;;;;;;339027;29;1869;-55
2023/11/19 00:07:51;;;;;;;13.38;10.52;;;14.60;66.90;;;;;;338948;29;1123;-57
2023/11/19 00:08:02;;;;;;;13.35;10.18;;;14.60;66.90;;;;;;338916;29;1165;-56
2023/11/19 00:08:13;;;;;;;13.57;10.18;;;14.60;67.00;;;;;;338962;29;1079;-57
2023/11/19 00:08:24;;;;;;;13.25;10.05;;;14.60;67.00;;;;;;338963;29;1036;-57
2023/11/19 00:08:35;;;;;;;12.57;9.98;;;14.60;66.90;;;;;;338941;29;1092;-57
2023/11/19 00:08:46;;;;;;;11.52;10.05;;;14.60;66.90;;;;;;339024;29;1139;-56
2023/11/19 00:08:57;;;;;;;11.48;10.25;;;14.60;66.90;;;;;;338934;29;981;-57
2023/11/19 00:09:08;;;;;;;11.23;10.07;;;14.60;66.90;;;;;;338930;29;1020;-58
2023/11/19 00:09:18;;;;;;;10.57;9.48;;;14.60;66.90;;;;;;338972;29;977;-56
2023/11/19 00:09:29;;;;;;;10.10;9.03;;;14.60;66.90;;;;;;339036;29;899;-58
2023/11/19 00:09:40;;;;;;;10.32;9.23;;;14.60;66.90;;;;;;338893;29;1040;-55
2023/11/19 00:09:51;;;;;;;10.75;9.57;;;14.60;66.90;;;;;;339021;29;927;-57
2023/11/19 00:10:04;;;;;;;11.27;10.07;;;14.60;66.90;;;;;;338969;29;981;-57
2023/11/19 00:10:18;;;;;;;11.05;9.95;;;14.60;66.80;;;;;;338864;29;1191;-57
2023/11/19 00:10:29;;;;;;;11.02;9.93;;;14.60;66.90;;;;;;338969;29;1008;-56
2023/11/19 00:10:40;;;;;;;10.88;9.77;;;14.60;66.90;;;;;;338967;29;1108;-57
2023/11/19 00:10:51;;;;;;;11.20;10.00;;;14.60;66.90;;;;;;338894;29;1054;-57
2023/11/19 00:11:03;;;;;;;10.95;9.85;;;14.60;66.90;;;;;;338972;29;1005;-58
2023/11/19 00:11:15;;;;;;;11.18;10.00;;;14.60;66.90;;;;;;338883;29;1132;-57
2023/11/19 00:11:26;;;;;;;11.95;10.43;;;14.60;66.90;;;;;;338931;29;1115;-57
2023/11/19 00:11:37;;;;;;;12.73;10.27;;;14.60;66.80;;;;;;339012;29;1020;-59
2023/11/19 00:11:48;;;;;;;12.52;10.13;;;14.60;66.80;;;;;;339006;29;1060;-57
2023/11/19 00:12:00;;;;;;;12.30;9.80;;;14.60;66.80;;;;;;338902;29;965;-55
2023/11/19 00:12:10;;;;;;;11.48;9.60;;;14.60;66.70;;;;;;338928;29;1907;-57
2023/11/19 00:12:22;;;;;;;12.32;9.90;;;14.60;66.80;;;;;;338993;29;1032;-57
2023/11/19 00:12:33;;;;;;;13.07;10.23;;;14.60;66.80;;;;;;338909;29;866;-57
2023/11/19 00:12:46;;;;;;;12.85;10.40;;;14.60;66.80;;;;;;338957;29;1970;-56
2023/11/19 00:12:57;;;;;;;12.45;9.90;;;14.60;66.70;;;;;;338977;29;1016;-57
2023/11/19 00:13:07;;;;;;;11.57;9.60;;;14.60;66.70;;;;;;339045;29;921;-56
2023/11/19 00:13:18;;;;;;;11.23;9.85;;;14.60;66.70;;;;;;338905;29;1096;-57
2023/11/19 00:13:29;;;;;;;11.85;10.48;;;14.60;66.70;;;;;;339010;29;854;-56
2023/11/19 00:13:40;;;;;;;11.48;10.25;;;14.60;66.70;;;;;;339040;29;989;-56
2023/11/19 00:13:51;;;;;;;11.25;10.02;;;14.60;66.70;;;;;;338979;29;1105;-57
2023/11/19 00:14:02;;;;;;;11.63;10.00;;;14.60;66.80;;;;;;338961;29;910;-57
2023/11/19 00:14:13;;;;;;;11.80;10.00;;;14.60;66.80;;;;;;338946;29;1239;-57
2023/11/19 00:14:25;;;;;;;12.68;9.73;;;14.50;66.90;;;;;;338953;29;1104;-58
2023/11/19 00:14:36;;;;;;;12.70;9.70;;;14.50;66.90;;;;;;338963;29;1154;-56
2023/11/19 00:14:46;;;;;;;14.45;10.07;;;14.50;66.90;;;;;;338917;29;929;-58
2023/11/19 00:14:57;;;;;;;13.27;10.20;;;14.50;66.90;;;;;;339036;29;1035;-56
2023/11/19 00:15:11;;;;;;;12.73;10.07;;;14.60;67.00;;;;;;338952;29;1467;-58
2023/11/19 00:15:24;;;;;;;11.90;10.43;;;14.50;66.90;;;;;;338979;29;1012;-58
2023/11/19 00:15:34;;;;;;;11.80;10.60;;;14.50;66.80;;;;;;338884;29;1009;-57
2023/11/19 00:15:45;;;;;;;11.68;10.48;;;14.50;66.80;;;;;;338923;29;981;-56
2023/11/19 00:15:56;;;;;;;11.43;10.23;;;14.50;66.80;;;;;;339026;29;885;-56
2023/11/19 00:16:09;;;;;;;11.27;10.07;;;14.50;66.80;;;;;;339013;29;880;-56
2023/11/19 00:16:20;;;;;;;12.18;9.98;;;14.50;66.90;;;;;;338896;29;948;-56
2023/11/19 00:16:32;;;;;;;12.63;10.13;;;14.50;66.90;;;;;;338955;29;1388;-56
2023/11/19 00:16:42;;;;;;;12.07;10.27;;;14.50;66.90;;;;;;338940;29;1120;-56
2023/11/19 00:16:53;;;;;;;11.55;10.32;;;14.50;66.90;;;;;;339026;29;874;-55
2023/11/19 00:17:04;;;;;;;12.50;10.45;;;14.50;66.90;;;;;;338889;29;998;-57
2023/11/19 00:17:15;;;;;;;14.88;10.55;;;14.50;66.90;;;;;;338974;29;869;-56
2023/11/19 00:17:27;;;;;;;14.03;10.50;;;14.50;66.90;;;;;;338945;29;1440;-59
2023/11/19 00:17:44;;;;;;;12.52;10.30;;;14.50;66.90;;;;;;338937;29;1132;-56
2023/11/19 00:17:55;;;;;;;11.98;10.15;;;14.50;66.80;;;;;;338851;29;1056;-56
2023/11/19 00:18:05;;;;;;;11.75;10.10;;;14.50;66.90;;;;;;339019;29;1093;-55
2023/11/19 00:18:16;;;;;;;11.85;10.40;;;14.50;66.90;;;;;;338962;29;1076;-56
2023/11/19 00:18:27;;;;;;;11.70;10.47;;;14.50;66.90;;;;;;338977;29;1113;-57
2023/11/19 00:18:38;;;;;;;11.82;10.55;;;14.50;66.90;;;;;;338884;29;1148;-56
2023/11/19 00:18:49;;;;;;;11.85;10.05;;;14.50;67.00;;;;;;338954;29;866;-57
2023/11/19 00:19:00;;;;;;;12.25;10.20;;;14.50;66.90;;;;;;338976;29;1029;-56
2023/11/19 00:19:11;;;;;;;12.23;10.50;;;14.50;66.90;;;;;;338898;29;1589;-58
2023/11/19 00:19:22;;;;;;;12.27;10.70;;;14.50;66.90;;;;;;338974;29;886;-57
2023/11/19 00:19:33;;;;;;;12.00;10.57;;;14.50;66.90;;;;;;338918;29;889;-58
2023/11/19 00:19:43;;;;;;;12.00;10.48;;;14.50;67.00;;;;;;338961;29;965;-58
2023/11/19 00:19:54;;;;;;;12.23;10.57;;;14.50;67.00;;;;;;339014;29;856;-56
2023/11/19 00:20:06;;;;;;;13.20;10.32;;;14.40;67.00;;;;;;338975;29;1458;-56
2023/11/19 00:20:18;;;;;;;16.15;10.30;;;14.40;67.10;;;;;;338889;29;1486;-57
2023/11/19 00:20:29;;;;;;;16.23;10.07;;;14.50;67.10;;;;;;338819;29;1136;-57
2023/11/19 00:20:40;;;;;;;15.20;9.90;;;14.40;67.20;;;;;;338969;29;1175;-57
2023/11/19 00:20:51;;;;;;;14.32;9.85;;;14.40;67.20;;;;;;338946;29;989;-56
2023/11/19 00:21:02;;;;;;;13.00;9.80;;;14.40;67.20;;;;;;338928;29;1053;-60
2023/11/19 00:21:13;;;;;;;12.48;9.98;;;14.40;67.10;;;;;;338926;29;989;-57
2023/11/19 00:21:23;;;;;;;12.47;10.10;;;14.40;67.10;;;;;;338898;29;1132;-58
2023/11/19 00:21:34;;;;;;;14.40;10.75;;;14.40;67.20;;;;;;338961;29;864;-57
2023/11/19 00:21:45;;;;;;;13.65;10.57;;;14.40;67.10;;;;;;338983;29;882;-57
2023/11/19 00:21:56;;;;;;;13.75;10.43;;;14.40;67.10;;;;;;339046;29;850;-56
2023/11/19 00:22:07;;;;;;;12.45;9.77;;;14.40;67.00;;;;;;338958;29;1089;-60
2023/11/19 00:22:17;;;;;;;12.30;10.00;;;14.40;67.00;;;;;;338919;29;992;-56
2023/11/19 00:22:28;;;;;;;11.60;10.07;;;14.40;67.00;;;;;;338989;29;854;-56
2023/11/19 00:22:39;;;;;;;11.50;10.30;;;14.50;67.10;;;;;;338984;29;1836;-56
2023/11/19 00:22:53;;;;;;;11.68;10.45;;;14.40;67.00;;;;;;338963;29;1001;-57
2023/11/19 00:23:03;;;;;;;12.35;10.48;;;14.50;67.00;;;;;;338939;29;1056;-57
2023/11/19 00:23:14;;;;;;;12.32;10.32;;;14.40;67.00;;;;;;338901;29;1032;-57
2023/11/19 00:23:25;;;;;;;11.70;9.83;;;14.40;67.10;;;;;;338958;29;953;-56
2023/11/19 00:23:36;;;;;;;11.07;9.82;;;14.40;67.10;;;;;;338937;29;1242;-57
2023/11/19 00:23:47;;;;;;;11.43;9.90;;;14.40;67.20;;;;;;338978;29;1120;-57
2023/11/19 00:23:58;;;;;;;13.57;10.32;;;14.40;67.20;;;;;;339024;29;933;-58
2023/11/19 00:24:09;;;;;;;14.00;10.50;;;14.40;67.20;;;;;;338855;29;1274;-57
2023/11/19 00:24:20;;;;;;;13.50;11.03;;;14.40;67.20;;;;;;338990;29;961;-58
2023/11/19 00:24:31;;;;;;;13.07;10.95;;;14.40;67.30;;;;;;338980;29;909;-57
2023/11/19 00:24:42;;;;;;;14.13;10.82;;;14.40;67.30;;;;;;339021;29;944;-57
2023/11/19 00:24:53;;;;;;;12.88;10.45;;;14.40;67.20;;;;;;338825;29;1167;-57
2023/11/19 00:25:05;;;;;;;12.60;10.40;;;14.40;67.20;;;;;;338748;29;1025;-58
2023/11/19 00:25:16;;;;;;;13.18;10.57;;;14.40;67.20;;;;;;338809;29;1495;-56
2023/11/19 00:25:27;;;;;;;14.25;10.93;;;14.40;67.20;;;;;;338900;29;894;-57
2023/11/19 00:25:38;;;;;;;14.33;11.17;;;14.40;67.20;;;;;;338853;29;830;-57
2023/11/19 00:25:49;;;;;;;12.38;10.70;;;14.40;67.20;;;;;;338803;29;1219;-56
2023/11/19 00:26:00;;;;;;;12.50;10.55;;;14.40;67.20;;;;;;338733;29;926;-55
2023/11/19 00:26:10;;;;;;;12.40;10.32;;;14.40;67.10;;;;;;338831;29;1092;-57
2023/11/19 00:26:21;;;;;;;12.20;10.47;;;14.40;67.10;;;;;;338858;29;1503;-55
2023/11/19 00:26:32;;;;;;;11.85;10.40;;;14.40;67.10;;;;;;338848;29;1081;-57
2023/11/19 00:26:43;;;;;;;11.85;10.55;;;14.40;67.10;;;;;;338894;29;889;-57
2023/11/19 00:26:53;;;;;;;11.98;10.70;;;14.40;67.10;;;;;;338886;29;1092;-57
2023/11/19 00:27:04;;;;;;;11.82;10.63;;;14.40;67.10;;;;;;338994;29;942;-56
2023/11/19 00:27:15;;;;;;;12.10;10.83;;;14.40;67.10;;;;;;338989;29;1044;-56
2023/11/19 00:27:26;;;;;;;12.07;10.77;;;14.40;67.10;;;;;;338903;29;1006;-57
2023/11/19 00:27:40;;;;;;;12.10;10.80;;;14.40;67.10;;;;;;339036;29;901;-57
2023/11/19 00:27:53;;;;;;;11.82;10.57;;;14.40;67.10;;;;;;338795;29;1112;-57
2023/11/19 00:28:03;;;;;;;12.02;10.57;;;14.40;67.10;;;;;;338928;29;1113;-55
2023/11/19 00:28:14;;;;;;;13.23;10.38;;;14.40;67.20;;;;;;338902;29;1643;-56
2023/11/19 00:28:25;;;;;;;13.02;10.18;;;14.40;67.20;;;;;;338977;29;1215;-57
2023/11/19 00:28:38;;;;;;;12.03;10.20;;;14.40;67.20;;;;;;338900;29;1116;-58
2023/11/19 00:28:49;;;;;;;12.27;10.25;;;14.40;67.20;;;;;;338914;29;1009;-57
2023/11/19 00:29:00;;;;;;;12.40;10.80;;;14.40;67.20;;;;;;338996;29;1068;-56
2023/11/19 00:29:10;;;;;;;13.15;10.52;;;14.40;67.20;;;;;;338976;29;1040;-57
2023/11/19 00:29:21;;;;;;;14.05;10.68;;;14.40;67.20;;;;;;338864;29;847;-57
2023/11/19 00:29:32;;;;;;;13.98;10.55;;;14.40;67.20;;;;;;338918;29;1435;-56
2023/11/19 00:29:46;;;;;;;11.83;10.40;;;14.40;67.10;;;;;;338799;29;1222;-56
2023/11/19 00:29:57;;;;;;;11.52;10.32;;;14.40;67.10;;;;;;338901;29;941;-57
2023/11/19 00:30:08;;;;;;;11.82;10.62;;;14.40;67.10;;;;;;338953;29;977;-56
2023/11/19 00:30:19;;;;;;;11.88;10.65;;;14.40;67.10;;;;;;338948;29;884;-56
2023/11/19 00:30:31;;;;;;;12.57;10.38;;;14.40;67.10;;;;;;338938;29;1079;-55
2023/11/19 00:30:41;;;;;;;12.23;10.38;;;14.40;67.10;;;;;;338918;29;1095;-57
2023/11/19 00:30:52;;;;;;;12.03;10.47;;;14.40;67.10;;;;;;338987;29;909;-55
2023/11/19 00:31:04;;;;;;;12.88;10.85;;;14.40;67.00;;;;;;338966;29;993;-56
2023/11/19 00:31:14;;;;;;;13.00;10.70;;;14.40;67.10;;;;;;338968;29;1083;-55
2023/11/19 00:31:27;;;;;;;12.70;10.57;;;14.40;67.10;;;;;;338898;29;1076;-57
2023/11/19 00:31:38;;;;;;;12.48;10.50;;;14.40;67.10;;;;;;338932;29;1041;-57
2023/11/19 00:31:49;;;;;;;12.88;10.57;;;14.40;67.20;;;;;;338953;29;1080;-59
2023/11/19 00:32:00;;;;;;;12.32;10.95;;;14.30;67.20;;;;;;338935;29;1899;-57
2023/11/19 00:32:11;;;;;;;12.55;11.25;;;14.40;67.20;;;;;;338802;29;1986;-57
2023/11/19 00:32:22;;;;;;;12.60;11.30;;;14.30;67.10;;;;;;338948;29;1543;-59
2023/11/19 00:32:33;;;;;;;12.68;11.32;;;14.30;67.10;;;;;;338953;29;827;-58
2023/11/19 00:32:45;;;;;;;17.17;15.15;;;14.40;67.10;;;;;;338951;29;1040;-57
2023/11/19 00:32:56;;;;;;;27.05;22.80;;;14.30;67.10;;;;;;338874;29;1052;-56
2023/11/19 00:33:06;;;;;;;31.23;26.65;;;14.40;67.10;;;;;;338976;29;1085;-57
2023/11/19 00:33:17;;;;;;;25.98;22.02;;;14.30;67.10;;;;;;338897;29;1081;-56
2023/11/19 00:33:28;;;;;;;20.98;17.88;;;14.30;67.10;;;;;;338839;29;1075;-58
2023/11/19 00:33:39;;;;;;;16.73;13.93;;;14.30;67.10;;;;;;338934;29;1009;-56
2023/11/19 00:33:50;;;;;;;14.77;12.15;;;14.30;67.10;;;;;;338971;29;877;-56
2023/11/19 00:34:01;;;;;;;13.35;11.15;;;14.30;67.10;;;;;;338910;29;894;-57
2023/11/19 00:34:13;;;;;;;13.50;11.45;;;14.30;67.10;;;;;;338909;29;1010;-56
2023/11/19 00:34:23;;;;;;;14.45;11.93;;;14.30;67.20;;;;;;338959;29;1128;-56
2023/11/19 00:34:34;;;;;;;14.43;12.10;;;14.40;67.20;;;;;;338849;29;1443;-57
2023/11/19 00:34:46;;;;;;;15.48;11.70;;;14.40;67.20;;;;;;338941;29;1032;-58
2023/11/19 00:34:57;;;;;;;13.73;11.18;;;14.30;67.20;;;;;;338994;29;1040;-55
2023/11/19 00:35:10;;;;;;;13.15;11.15;;;14.30;67.30;;;;;;338898;29;882;-56
2023/11/19 00:35:20;;;;;;;12.18;10.80;;;14.40;67.20;;;;;;338907;29;962;-56
2023/11/19 00:35:31;;;;;;;12.07;10.50;;;14.30;67.20;;;;;;338950;29;1128;-58
2023/11/19 00:35:43;;;;;;;13.68;10.80;;;14.30;67.10;;;;;;338854;29;1670;-58
2023/11/19 00:35:54;;;;;;;13.65;10.90;;;14.30;67.00;;;;;;338897;29;1120;-57
2023/11/19 00:36:05;;;;;;;12.57;10.93;;;14.30;67.00;;;;;;338965;29;1044;-56
2023/11/19 00:36:16;;;;;;;12.90;11.40;;;14.30;67.00;;;;;;338866;29;1101;-59
2023/11/19 00:36:26;;;;;;;13.55;11.90;;;14.30;67.00;;;;;;338960;29;845;-58
2023/11/19 00:36:37;;;;;;;14.18;12.27;;;14.30;67.00;;;;;;338968;29;944;-57
2023/11/19 00:36:48;;;;;;;13.80;12.07;;;14.30;67.10;;;;;;338887;29;895;-57
2023/11/19 00:36:59;;;;;;;13.57;12.13;;;14.40;67.10;;;;;;338929;29;929;-56
2023/11/19 00:37:10;;;;;;;13.20;11.70;;;14.30;67.00;;;;;;338956;29;1410;-56
2023/11/19 00:37:21;;;;;;;13.85;11.77;;;14.30;67.10;;;;;;338788;29;1097;-55
2023/11/19 00:37:32;;;;;;;13.25;11.52;;;14.30;67.10;;;;;;339039;29;898;-56
2023/11/19 00:37:45;;;;;;;12.88;11.52;;;14.30;67.20;;;;;;338942;29;980;-55
2023/11/19 00:37:56;;;;;;;14.13;11.40;;;14.30;67.20;;;;;;338842;29;974;-56
2023/11/19 00:38:06;;;;;;;14.68;11.13;;;14.30;67.30;;;;;;338868;29;1017;-55
2023/11/19 00:38:17;;;;;;;13.57;10.63;;;14.30;67.30;;;;;;338892;29;1019;-58
2023/11/19 00:38:28;;;;;;;13.13;10.77;;;14.30;67.40;;;;;;338982;29;931;-57
2023/11/19 00:38:39;;;;;;;13.70;11.38;;;14.30;67.30;;;;;;338861;29;1100;-59
2023/11/19 00:38:50;;;;;;;14.40;11.77;;;14.30;67.30;;;;;;338993;29;949;-56
2023/11/19 00:39:00;;;;;;;12.93;11.52;;;14.30;67.40;;;;;;338921;29;968;-59
2023/11/19 00:39:11;;;;;;;12.53;11.23;;;14.30;67.40;;;;;;338949;29;1005;-56
2023/11/19 00:39:22;;;;;;;12.95;11.60;;;14.30;67.30;;;;;;338871;29;1012;-57
2023/11/19 00:39:33;;;;;;;13.57;11.45;;;14.30;67.30;;;;;;338919;29;1005;-56
2023/11/19 00:39:43;;;;;;;13.10;11.27;;;14.30;67.30;;;;;;338848;29;1085;-57
2023/11/19 00:39:56;;;;;;;12.20;10.87;;;14.30;67.30;;;;;;338989;29;933;-56
2023/11/19 00:40:07;;;;;;;12.05;10.85;;;14.30;67.20;;;;;;338869;29;937;-56
2023/11/19 00:40:21;;;;;;;12.30;11.05;;;14.30;67.30;;;;;;338941;29;2020;-57
2023/11/19 00:40:32;;;;;;;13.07;11.68;;;14.30;67.20;;;;;;338810;29;1466;-56
2023/11/19 00:40:44;;;;;;;13.20;11.65;;;14.30;67.20;;;;;;338964;29;977;-57
2023/11/19 00:40:54;;;;;;;13.52;11.68;;;14.30;67.20;;;;;;338828;29;1029;-56
2023/11/19 00:41:06;;;;;;;14.02;11.80;;;14.30;67.20;;;;;;338974;29;870;-56
2023/11/19 00:41:17;;;;;;;14.25;12.15;;;14.30;67.10;;;;;;338875;29;1041;-57
2023/11/19 00:41:27;;;;;;;13.90;12.13;;;14.30;67.20;;;;;;338851;29;1605;-56
2023/11/19 00:41:38;;;;;;;13.98;12.00;;;14.30;67.10;;;;;;338904;29;1044;-56
2023/11/19 00:41:49;;;;;;;12.97;11.50;;;14.30;67.10;;;;;;338968;29;802;-57
2023/11/19 00:41:59;;;;;;;12.35;11.02;;;14.30;67.20;;;;;;338927;29;1028;-56
2023/11/19 00:42:10;;;;;;;12.80;11.38;;;14.30;67.10;;;;;;338928;29;1089;-57
2023/11/19 00:42:21;;;;;;;13.27;11.48;;;14.30;67.10;;;;;;338937;29;846;-56
2023/11/19 00:42:32;;;;;;;13.13;11.27;;;14.30;67.20;;;;;;338909;29;882;-58
2023/11/19 00:42:43;;;;;;;12.30;10.93;;;14.30;67.20;;;;;;338874;29;859;-56
2023/11/19 00:42:53;;;;;;;12.75;11.38;;;14.30;67.20;;;;;;338937;29;898;-56
2023/11/19 00:43:04;;;;;;;13.32;11.63;;;14.30;67.20;;;;;;338877;29;1478;-57
2023/11/19 00:43:15;;;;;;;16.50;11.65;;;14.30;67.20;;;;;;338659;29;1820;-57
2023/11/19 00:43:27;;;;;;;16.38;11.32;;;14.30;67.20;;;;;;338748;29;1045;-56
2023/11/19 00:43:38;;;;;;;16.08;11.50;;;14.30;67.20;;;;;;338708;29;1017;-56
2023/11/19 00:43:49;;;;;;;12.73;11.23;;;14.30;67.30;;;;;;338731;29;888;-57
2023/11/19 00:43:59;;;;;;;12.43;11.13;;;14.30;67.30;;;;;;338773;29;2713;-56
2023/11/19 00:44:10;;;;;;;12.83;11.47;;;14.30;67.30;;;;;;338970;29;1139;-55
2023/11/19 00:44:21;;;;;;;13.77;11.88;;;14.30;67.20;;;;;;338714;29;1281;-55
2023/11/19 00:44:32;;;;;;;14.68;12.00;;;14.30;67.20;;;;;;338801;29;1129;-56
2023/11/19 00:44:43;;;;;;;14.68;11.60;;;14.30;67.30;;;;;;338834;29;1025;-57
2023/11/19 00:44:54;;;;;;;14.45;11.48;;;14.30;67.30;;;;;;338774;29;1028;-57
2023/11/19 00:45:09;;;;;;;14.02;11.43;;;14.30;67.20;;;;;;338768;29;1368;-56
2023/11/19 00:45:20;;;;;;;13.75;11.57;;;14.30;67.20;;;;;;338699;29;1116;-56
2023/11/19 00:45:31;;;;;;;13.25;11.75;;;14.30;67.20;;;;;;338795;29;1080;-56
2023/11/19 00:45:41;;;;;;;13.35;11.90;;;14.30;67.20;;;;;;338786;29;1077;-54
2023/11/19 00:45:52;;;;;;;13.13;11.75;;;14.30;67.20;;;;;;338733;29;899;-56
2023/11/19 00:46:03;;;;;;;12.90;11.50;;;14.30;67.20;;;;;;338851;29;950;-55
2023/11/19 00:46:13;;;;;;;13.23;11.82;;;14.30;67.30;;;;;;338801;29;1606;-56
2023/11/19 00:46:24;;;;;;;14.48;11.95;;;14.30;67.20;;;;;;338814;29;1048;-55
2023/11/19 00:46:35;;;;;;;13.93;11.43;;;14.30;67.20;;;;;;338942;29;1028;-56
2023/11/19 00:46:46;;;;;;;13.87;11.03;;;14.30;67.20;;;;;;338919;29;1136;-56
2023/11/19 00:46:56;;;;;;;12.80;11.15;;;14.30;67.20;;;;;;338907;29;1021;-57
2023/11/19 00:47:07;;;;;;;13.20;11.57;;;14.20;67.30;;;;;;338968;29;1745;-56
2023/11/19 00:47:21;;;;;;;13.35;11.95;;;14.30;67.30;;;;;;338908;29;1176;-56
2023/11/19 00:47:32;;;;;;;12.90;11.60;;;14.30;67.20;;;;;;338836;29;1036;-56
2023/11/19 00:47:43;;;;;;;12.65;11.35;;;14.30;67.20;;;;;;338894;29;1125;-56
2023/11/19 00:47:53;;;;;;;12.43;11.20;;;14.30;67.20;;;;;;338926;29;1109;-56
2023/11/19 00:48:04;;;;;;;13.02;11.52;;;14.30;67.20;;;;;;338893;29;1049;-57
2023/11/19 00:48:15;;;;;;;14.73;11.68;;;14.30;67.10;;;;;;338922;29;920;-56
2023/11/19 00:48:26;;;;;;;15.30;11.95;;;14.20;67.20;;;;;;338933;29;1039;-56
2023/11/19 00:48:37;;;;;;;15.00;11.95;;;14.30;67.10;;;;;;338874;29;1045;-55
2023/11/19 00:48:48;;;;;;;13.27;11.48;;;14.30;67.20;;;;;;338914;29;819;-57
2023/11/19 00:49:00;;;;;;;13.93;11.40;;;14.20;67.30;;;;;;338925;29;1040;-56
2023/11/19 00:49:11;;;;;;;13.52;11.55;;;14.30;67.30;;;;;;338871;29;1078;-57
2023/11/19 00:49:22;;;;;;;12.55;11.25;;;14.20;67.30;;;;;;338902;29;1164;-59
2023/11/19 00:49:33;;;;;;;12.40;11.10;;;14.20;67.30;;;;;;338984;29;934;-56
2023/11/19 00:49:44;;;;;;;12.18;10.85;;;14.30;67.30;;;;;;338853;29;1089;-56
2023/11/19 00:49:54;;;;;;;12.38;11.05;;;14.30;67.30;;;;;;338924;29;1044;-57
2023/11/19 00:50:06;;;;;;;12.13;10.82;;;14.20;67.20;;;;;;338934;29;1101;-57
2023/11/19 00:50:17;;;;;;;12.60;11.27;;;14.30;67.20;;;;;;338762;29;1135;-56
2023/11/19 00:50:29;;;;;;;12.82;11.43;;;14.20;67.20;;;;;;338916;29;1060;-57
2023/11/19 00:50:43;;;;;;;13.63;11.73;;;14.30;67.20;;;;;;338840;29;1075;-57
2023/11/19 00:50:54;;;;;;;13.30;11.43;;;14.30;67.20;;;;;;338810;29;965;-56
2023/11/19 00:51:05;;;;;;;13.35;11.32;;;14.20;67.20;;;;;;338937;29;954;-57
2023/11/19 00:51:16;;;;;;;13.70;11.32;;;14.20;67.20;;;;;;338854;29;1064;-57
2023/11/19 00:51:27;;;;;;;13.23;10.85;;;14.30;67.20;;;;;;338863;29;1043;-55
2023/11/19 00:51:37;;;;;;;13.90;11.10;;;14.30;67.10;;;;;;338986;29;1960;-56
2023/11/19 00:51:49;;;;;;;13.10;11.13;;;14.20;67.10;;;;;;338885;29;1526;-56
2023/11/19 00:51:59;;;;;;;14.15;11.65;;;14.20;67.00;;;;;;338943;29;1098;-56
2023/11/19 00:52:10;;;;;;;14.43;11.97;;;14.20;67.00;;;;;;338964;29;889;-56
2023/11/19 00:52:21;;;;;;;14.43;11.85;;;14.20;67.10;;;;;;338831;29;1894;-55
2023/11/19 00:52:32;;;;;;;14.63;11.82;;;14.20;67.10;;;;;;338833;29;1449;-59
2023/11/19 00:52:43;;;;;;;13.23;11.38;;;14.30;67.10;;;;;;338968;29;913;-57
2023/11/19 00:52:54;;;;;;;12.77;11.38;;;14.20;67.10;;;;;;338902;29;1739;-57
2023/11/19 00:53:05;;;;;;;12.90;11.63;;;14.30;67.10;;;;;;338910;29;942;-57
2023/11/19 00:53:15;;;;;;;13.10;11.80;;;14.20;67.10;;;;;;338937;29;897;-59
2023/11/19 00:53:26;;;;;;;12.70;11.45;;;14.20;67.10;;;;;;338888;29;954;-57
2023/11/19 00:53:37;;;;;;;12.50;11.23;;;14.20;67.10;;;;;;338920;29;1089;-57
2023/11/19 00:53:47;;;;;;;12.85;11.55;;;14.20;67.10;;;;;;338865;29;1043;-57
2023/11/19 00:53:59;;;;;;;15.10;11.85;;;14.20;67.10;;;;;;338962;29;1013;-57
2023/11/19 00:54:09;;;;;;;14.07;11.45;;;14.30;67.10;;;;;;338779;29;1120;-57
2023/11/19 00:54:20;;;;;;;14.15;11.48;;;14.20;67.10;;;;;;338965;29;1040;-58
2023/11/19 00:54:31;;;;;;;14.02;11.70;;;14.20;67.10;;;;;;338858;29;1084;-57
2023/11/19 00:54:42;;;;;;;14.67;11.87;;;14.20;67.10;;;;;;338878;29;1093;-57
2023/11/19 00:54:53;;;;;;;13.70;11.55;;;14.20;67.00;;;;;;338852;29;997;-57
2023/11/19 00:55:05;;;;;;;13.32;11.15;;;14.20;67.00;;;;;;338881;29;957;-57
2023/11/19 00:55:15;;;;;;;12.65;10.77;;;14.30;67.10;;;;;;338835;29;1024;-59
2023/11/19 00:55:26;;;;;;;12.35;10.95;;;14.20;67.10;;;;;;338957;29;845;-57
2023/11/19 00:55:37;;;;;;;11.88;10.68;;;14.20;67.10;;;;;;338842;29;1087;-56
2023/11/19 00:55:48;;;;;;;12.10;10.90;;;14.20;67.00;;;;;;338948;29;799;-57
2023/11/19 00:56:00;;;;;;;12.55;11.02;;;14.20;67.00;;;;;;338860;29;918;-57
2023/11/19 00:56:12;;;;;;;13.00;11.48;;;14.20;67.00;;;;;;338939;29;1959;-57
2023/11/19 00:56:23;;;;;;;14.02;11.50;;;14.30;67.00;;;;;;338824;29;1000;-57
2023/11/19 00:56:33;;;;;;;14.37;11.60;;;14.20;67.00;;;;;;338930;29;925;-57
2023/11/19 00:56:44;;;;;;;13.88;11.27;;;14.20;67.00;;;;;;338907;29;902;-57
2023/11/19 00:56:55;;;;;;;13.43;11.35;;;14.20;67.00;;;;;;338943;29;902;-57
2023/11/19 00:57:06;;;;;;;12.90;11.50;;;14.20;67.00;;;;;;338843;29;1428;-56
2023/11/19 00:57:16;;;;;;;13.60;11.50;;;14.20;67.00;;;;;;338918;29;1087;-57
2023/11/19 00:57:27;;;;;;;13.43;11.13;;;14.20;67.00;;;;;;338876;29;1153;-56
2023/11/19 00:57:38;;;;;;;13.27;11.03;;;14.20;67.10;;;;;;338911;29;1132;-58
2023/11/19 00:57:51;;;;;;;13.75;11.45;;;14.20;67.00;;;;;;338835;29;1001;-57
2023/11/19 00:58:03;;;;;;;13.95;11.60;;;14.20;67.00;;;;;;338901;29;1840;-57
2023/11/19 00:58:13;;;;;;;13.63;11.50;;;14.20;67.00;;;;;;338969;29;940;-56
2023/11/19 00:58:24;;;;;;;12.77;11.45;;;14.20;67.10;;;;;;338960;29;1048;-56